Time;durP1;ratioP1;P1;durP2;ratioP2;P2;SDS_P1;SDS_P2;PMS_P1;PMS_P2;Temp;Humidity;BMP_temperature;BMP_pressure;BME280_temperature;BME280_humidity;BME280_pressure;Samples;Min_cycle;Max_cycle;Signal;HPM_P1;HPM_P2
2022/04/12 00:00:27;;;;;;;9.63;4.90;;;9.10;52.70;;;;;;5055710;28;20485;-74
2022/04/12 00:02:52;;;;;;;7.35;4.32;;;9.00;52.60;;;;;;5055520;28;20028;-74
2022/04/12 00:05:18;;;;;;;9.52;4.28;;;9.00;52.70;;;;;;5054956;28;20059;-74
2022/04/12 00:07:44;;;;;;;8.13;4.22;;;8.90;53.10;;;;;;5055297;28;20040;-74
2022/04/12 00:10:11;;;;;;;7.20;4.93;;;8.90;53.50;;;;;;5055303;28;20484;-73
2022/04/12 00:12:40;;;;;;;8.48;4.68;;;8.80;54.00;;;;;;5055454;28;20032;-74
2022/04/12 00:15:07;;;;;;;8.73;4.28;;;8.70;55.00;;;;;;5055203;28;20100;-74
2022/04/12 00:20:19;;;;;;;8.15;4.32;;;8.60;55.50;;;;;;5055599;28;20060;-74
2022/04/12 00:22:45;;;;;;;11.35;4.50;;;8.50;55.90;;;;;;5055574;28;20386;-74
2022/04/12 00:25:12;;;;;;;7.30;4.75;;;8.40;55.90;;;;;;5053822;28;20025;-74
2022/04/12 00:27:38;;;;;;;5.95;4.30;;;8.30;56.50;;;;;;5055169;28;20029;-73
2022/04/12 00:30:06;;;;;;;7.80;4.07;;;8.30;56.60;;;;;;5055249;28;20025;-74
2022/04/12 00:32:31;;;;;;;8.02;4.35;;;8.30;57.00;;;;;;5054957;28;20032;-73
2022/04/12 00:34:57;;;;;;;9.23;4.95;;;8.20;57.30;;;;;;5054947;28;20550;-74
2022/04/12 00:37:23;;;;;;;8.93;4.53;;;8.10;57.80;;;;;;5054751;28;20108;-73
2022/04/12 00:39:48;;;;;;;9.45;4.50;;;8.10;58.20;;;;;;5054865;28;20040;-73
2022/04/12 00:42:14;;;;;;;6.85;4.53;;;8.00;58.30;;;;;;5054908;28;20088;-73
2022/04/12 00:44:39;;;;;;;9.85;4.75;;;8.00;58.60;;;;;;5054573;28;20036;-72
2022/04/12 00:47:05;;;;;;;8.60;4.60;;;7.90;58.90;;;;;;5054807;28;20018;-73
2022/04/12 00:49:31;;;;;;;9.27;5.13;;;7.90;59.10;;;;;;5054697;28;20025;-73
2022/04/12 00:51:57;;;;;;;11.52;4.50;;;7.90;59.20;;;;;;5054662;28;20021;-73
2022/04/12 00:54:23;;;;;;;8.32;4.95;;;7.80;59.80;;;;;;5054592;28;20163;-73
2022/04/12 00:56:51;;;;;;;9.52;5.00;;;7.70;60.10;;;;;;5054692;28;20017;-73
2022/04/12 00:59:18;;;;;;;10.68;4.55;;;7.80;59.80;;;;;;5054347;28;20041;-73
2022/04/12 01:01:44;;;;;;;8.40;4.78;;;7.80;59.60;;;;;;5054306;28;20143;-72
2022/04/12 01:04:10;;;;;;;7.72;4.50;;;7.80;59.60;;;;;;5054348;28;20133;-73
2022/04/12 01:06:37;;;;;;;9.35;4.22;;;8.00;58.60;;;;;;5054551;28;20495;-72
2022/04/12 01:09:05;;;;;;;9.50;4.50;;;8.00;58.10;;;;;;5054255;28;20028;-73
2022/04/12 01:11:33;;;;;;;11.98;4.93;;;8.10;58.00;;;;;;5053042;28;20475;-73
2022/04/12 01:13:59;;;;;;;8.63;4.97;;;8.10;58.40;;;;;;5054330;28;20036;-72
2022/04/12 01:16:24;;;;;;;16.35;4.65;;;8.00;58.90;;;;;;5053491;28;20030;-72
2022/04/12 01:18:50;;;;;;;7.43;4.25;;;7.90;59.60;;;;;;5054184;28;20039;-73
2022/04/12 01:21:15;;;;;;;8.25;4.68;;;7.80;60.00;;;;;;5054216;28;20483;-73
2022/04/12 01:24:04;;;;;;;9.80;5.13;;;7.70;60.40;;;;;;5054019;28;20032;-73
2022/04/12 01:26:30;;;;;;;8.43;5.03;;;7.60;61.20;;;;;;5054123;28;20492;-73
2022/04/12 01:28:57;;;;;;;6.90;4.30;;;7.50;61.60;;;;;;5052855;28;20113;-74
2022/04/12 01:31:26;;;;;;;6.20;4.15;;;7.50;61.80;;;;;;5054028;28;20025;-73
2022/04/12 01:33:52;;;;;;;7.22;4.45;;;7.50;61.70;;;;;;5052559;28;20379;-73
2022/04/12 01:36:18;;;;;;;5.97;4.18;;;7.50;61.50;;;;;;5053716;28;20064;-73
2022/04/12 01:38:44;;;;;;;6.57;4.45;;;7.60;61.30;;;;;;5053792;28;20095;-73
2022/04/12 01:41:10;;;;;;;6.07;3.70;;;7.60;61.20;;;;;;5053922;28;20021;-73
2022/04/12 01:43:35;;;;;;;8.30;4.55;;;7.50;61.40;;;;;;5053557;28;20060;-73
2022/04/12 01:46:01;;;;;;;9.07;4.60;;;7.50;61.70;;;;;;5052380;28;20090;-72
2022/04/12 01:48:26;;;;;;;9.55;4.80;;;7.40;61.80;;;;;;5053589;28;20081;-74
2022/04/12 01:50:52;;;;;;;6.57;4.20;;;7.40;62.10;;;;;;5053602;28;20560;-75
2022/04/12 01:53:17;;;;;;;9.52;4.57;;;7.40;62.30;;;;;;5053513;28;20040;-75
2022/04/12 01:55:43;;;;;;;9.45;4.90;;;7.30;62.70;;;;;;5053457;28;20098;-74
2022/04/12 01:58:09;;;;;;;8.70;4.45;;;7.30;62.80;;;;;;5052162;28;20163;-75
2022/04/12 02:00:36;;;;;;;7.22;4.03;;;7.30;62.90;;;;;;5053287;28;20036;-75
2022/04/12 02:03:02;;;;;;;9.05;4.20;;;7.40;62.80;;;;;;5053680;28;20025;-75
2022/04/12 02:05:27;;;;;;;6.75;4.22;;;7.30;63.10;;;;;;5053396;28;20521;-76
2022/04/12 02:07:53;;;;;;;4.82;3.53;;;7.40;62.90;;;;;;5053495;28;20051;-75
2022/04/12 02:10:21;;;;;;;8.38;3.67;;;7.30;62.60;;;;;;5055837;28;20029;-76
2022/04/12 02:12:47;;;;;;;7.75;3.92;;;7.30;62.80;;;;;;5053384;28;20096;-75
2022/04/12 02:15:12;;;;;;;6.85;3.90;;;7.30;63.00;;;;;;5053340;28;20043;-76
2022/04/12 02:17:38;;;;;;;8.95;3.58;;;7.30;63.00;;;;;;5053066;28;20443;-76
2022/04/12 02:20:04;;;;;;;4.75;3.30;;;7.30;63.00;;;;;;5053112;28;20028;-76
2022/04/12 02:22:30;;;;;;;5.45;3.08;;;7.20;63.10;;;;;;5053099;28;20100;-76
2022/04/12 02:24:55;;;;;;;8.55;4.55;;;7.30;63.10;;;;;;5053211;28;20059;-77
2022/04/12 02:27:21;;;;;;;5.82;3.92;;;7.30;62.80;;;;;;5052494;28;20025;-77
2022/04/12 02:29:47;;;;;;;6.65;4.10;;;7.40;62.70;;;;;;5052673;28;20025;-75
2022/04/12 02:32:12;;;;;;;8.15;4.30;;;7.40;62.50;;;;;;5053066;28;20122;-75
2022/04/12 02:34:38;;;;;;;9.02;5.05;;;7.40;62.20;;;;;;5053100;28;20021;-74
2022/04/12 02:37:04;;;;;;;8.55;5.18;;;7.30;62.40;;;;;;5051494;28;20051;-74
2022/04/12 02:39:30;;;;;;;9.45;4.65;;;7.20;63.10;;;;;;5051617;28;20032;-75
2022/04/12 02:41:56;;;;;;;9.65;5.60;;;7.10;64.00;;;;;;5051526;28;20028;-74
2022/04/12 02:44:21;;;;;;;11.75;4.75;;;6.90;64.60;;;;;;5052871;28;20429;-74
2022/04/12 02:46:47;;;;;;;12.48;5.18;;;6.90;64.70;;;;;;5052959;28;20033;-73
2022/04/12 02:49:12;;;;;;;9.07;4.88;;;6.90;64.80;;;;;;5052775;28;20025;-74
2022/04/12 02:51:38;;;;;;;9.02;5.18;;;6.90;65.00;;;;;;5052917;28;20087;-75
2022/04/12 02:54:04;;;;;;;9.13;4.97;;;6.90;65.10;;;;;;5052836;28;20021;-74
2022/04/12 02:56:29;;;;;;;9.10;5.13;;;6.80;65.40;;;;;;5052738;28;20026;-73
2022/04/12 02:58:55;;;;;;;8.10;5.43;;;6.80;65.10;;;;;;5052635;28;20108;-74
2022/04/12 03:01:20;;;;;;;11.18;4.95;;;6.80;65.10;;;;;;5052850;28;20051;-74
2022/04/12 03:03:46;;;;;;;7.43;4.80;;;6.80;65.40;;;;;;5052551;28;20021;-73
2022/04/12 03:06:11;;;;;;;7.97;4.50;;;6.70;66.00;;;;;;5052795;28;20033;-75
2022/04/12 03:08:37;;;;;;;10.73;4.80;;;6.70;66.30;;;;;;5052727;28;20024;-74
2022/04/12 03:11:03;;;;;;;10.02;4.75;;;6.70;66.50;;;;;;5052801;28;20086;-74
2022/04/12 03:13:28;;;;;;;6.88;4.00;;;6.70;66.50;;;;;;5052624;28;20089;-74
2022/04/12 03:15:54;;;;;;;8.90;4.25;;;6.70;66.40;;;;;;5052801;28;20036;-74
2022/04/12 03:18:20;;;;;;;8.63;3.95;;;6.80;66.20;;;;;;5051340;28;20040;-74
2022/04/12 03:20:45;;;;;;;6.25;3.63;;;6.80;66.00;;;;;;5052518;28;20494;-74
2022/04/12 03:23:11;;;;;;;6.85;3.88;;;6.80;65.80;;;;;;5052440;28;20577;-75
2022/04/12 03:25:38;;;;;;;4.97;3.25;;;6.90;65.70;;;;;;5052438;28;20025;-72
2022/04/12 03:28:04;;;;;;;6.18;4.00;;;7.00;65.60;;;;;;5052565;28;20025;-74
2022/04/12 03:30:30;;;;;;;8.32;4.07;;;7.00;65.10;;;;;;5052413;28;20028;-74
2022/04/12 03:32:55;;;;;;;5.95;4.05;;;7.00;65.10;;;;;;5052297;28;20056;-74
2022/04/12 03:35:21;;;;;;;9.02;4.80;;;7.00;65.00;;;;;;5051046;28;20387;-72
2022/04/12 03:37:47;;;;;;;9.50;5.20;;;6.90;65.10;;;;;;5052133;28;20029;-72
2022/04/12 03:40:13;;;;;;;9.35;5.43;;;6.90;65.60;;;;;;5054324;28;20031;-73
2022/04/12 03:42:39;;;;;;;7.32;4.93;;;6.90;65.60;;;;;;5055799;28;20091;-74
2022/04/12 03:45:05;;;;;;;10.68;5.18;;;6.80;65.80;;;;;;5055766;28;20436;-74
2022/04/12 03:47:31;;;;;;;10.82;4.72;;;6.80;65.70;;;;;;5055847;28;20451;-74
2022/04/12 03:49:56;;;;;;;10.02;4.50;;;6.80;65.80;;;;;;5055727;28;20053;-74
2022/04/12 03:52:22;;;;;;;7.65;4.55;;;6.80;65.90;;;;;;5055631;28;20502;-75
2022/04/12 03:54:47;;;;;;;10.57;4.55;;;6.80;66.30;;;;;;5055598;28;20092;-73
2022/04/12 03:57:13;;;;;;;7.75;4.07;;;6.70;66.40;;;;;;5055227;28;20040;-75
2022/04/12 03:59:39;;;;;;;9.98;4.80;;;6.60;66.50;;;;;;5055345;28;20037;-75
2022/04/12 04:02:04;;;;;;;8.00;4.70;;;6.70;66.40;;;;;;5055608;28;20025;-73
2022/04/12 04:04:30;;;;;;;9.57;5.07;;;6.70;66.10;;;;;;5055340;28;20053;-74
2022/04/12 04:06:56;;;;;;;8.05;4.03;;;6.70;66.20;;;;;;5055604;28;20333;-73
2022/04/12 04:09:21;;;;;;;8.40;4.03;;;6.60;66.40;;;;;;5055585;28;20029;-73
2022/04/12 04:11:48;;;;;;;7.30;4.35;;;6.70;66.50;;;;;;5055436;28;20096;-74
2022/04/12 04:14:15;;;;;;;8.02;4.57;;;6.70;66.30;;;;;;5055510;28;20024;-74
2022/04/12 04:16:41;;;;;;;9.60;4.63;;;6.70;66.30;;;;;;5055278;28;20025;-73
2022/04/12 04:19:09;;;;;;;10.20;4.43;;;6.70;66.10;;;;;;5055256;28;20498;-74
2022/04/12 04:21:35;;;;;;;11.15;4.72;;;6.70;66.20;;;;;;5055369;28;20052;-74
2022/04/12 04:24:02;;;;;;;7.15;4.30;;;6.70;66.40;;;;;;5055232;28;20100;-75
2022/04/12 04:26:27;;;;;;;8.98;4.55;;;6.60;66.20;;;;;;5055086;28;20106;-75
2022/04/12 04:28:53;;;;;;;10.68;4.95;;;6.60;66.30;;;;;;5055197;28;20459;-75
2022/04/12 04:31:18;;;;;;;9.95;4.47;;;6.60;66.30;;;;;;5054983;28;20047;-74
2022/04/12 04:33:44;;;;;;;9.68;4.82;;;6.60;65.90;;;;;;5055107;28;20043;-75
2022/04/12 04:36:09;;;;;;;7.10;4.13;;;6.60;65.80;;;;;;5055079;28;20158;-75
2022/04/12 04:38:35;;;;;;;8.40;4.50;;;6.50;66.10;;;;;;5054718;28;20498;-74
2022/04/12 04:41:00;;;;;;;10.02;4.60;;;6.60;66.10;;;;;;5053456;28;20382;-74
2022/04/12 04:43:26;;;;;;;7.55;4.47;;;6.60;66.20;;;;;;5054829;28;20470;-75
2022/04/12 04:45:52;;;;;;;9.23;4.68;;;6.60;66.10;;;;;;5054483;28;20075;-75
2022/04/12 04:48:17;;;;;;;6.43;3.50;;;6.50;66.30;;;;;;5054665;28;20036;-75
2022/04/12 04:50:43;;;;;;;7.93;4.35;;;6.50;66.10;;;;;;5053660;28;20017;-74
2022/04/12 04:53:11;;;;;;;8.63;4.47;;;6.50;65.90;;;;;;5054632;28;20056;-74
2022/04/12 04:55:37;;;;;;;12.95;4.85;;;6.50;66.00;;;;;;5053330;28;20115;-75
2022/04/12 04:58:05;;;;;;;7.63;4.22;;;6.50;66.30;;;;;;5054440;28;20387;-75
2022/04/12 05:00:34;;;;;;;10.27;4.35;;;6.50;66.40;;;;;;5054431;28;20036;-75
2022/04/12 05:03:01;;;;;;;6.50;4.38;;;6.50;66.50;;;;;;5054460;28;20021;-74
2022/04/12 05:05:27;;;;;;;8.13;4.38;;;6.40;66.10;;;;;;5054208;28;20072;-75
2022/04/12 05:07:54;;;;;;;8.38;3.95;;;6.50;66.10;;;;;;5054527;28;20107;-74
2022/04/12 05:10:31;;;;;;;11.05;4.72;;;6.40;66.20;;;;;;5054212;28;20029;-74
2022/04/12 05:12:58;;;;;;;8.15;4.78;;;6.40;66.40;;;;;;5054163;28;20028;-75
2022/04/12 05:15:23;;;;;;;7.55;4.25;;;6.40;66.30;;;;;;5054232;28;20017;-75
2022/04/12 05:17:50;;;;;;;7.00;4.03;;;6.40;66.30;;;;;;5052792;28;20037;-76
2022/04/12 05:20:17;;;;;;;8.98;4.45;;;6.50;66.30;;;;;;5054225;28;20387;-75
2022/04/12 05:22:42;;;;;;;9.30;4.68;;;6.50;66.50;;;;;;5053982;28;20116;-75
2022/04/12 05:25:08;;;;;;;10.85;4.97;;;6.60;66.10;;;;;;5054094;28;20056;-75
2022/04/12 05:27:35;;;;;;;7.85;4.20;;;6.60;66.10;;;;;;5053515;28;20040;-74
2022/04/12 05:30:01;;;;;;;9.25;4.43;;;6.70;65.80;;;;;;5053624;28;20056;-75
2022/04/12 05:32:27;;;;;;;12.98;4.88;;;6.70;65.80;;;;;;5052199;28;20025;-75
2022/04/12 05:34:52;;;;;;;10.80;4.90;;;6.70;64.80;;;;;;5053423;28;20032;-76
2022/04/12 05:37:19;;;;;;;10.75;4.60;;;6.80;64.70;;;;;;5053210;28;20027;-74
2022/04/12 05:39:44;;;;;;;9.45;4.70;;;6.90;64.30;;;;;;5053426;28;20032;-75
2022/04/12 05:42:10;;;;;;;10.18;4.53;;;7.00;64.10;;;;;;5053504;28;20017;-75
2022/04/12 05:44:36;;;;;;;9.82;4.13;;;7.10;65.30;;;;;;5052042;28;20411;-76
2022/04/12 05:47:03;;;;;;;9.98;5.07;;;7.10;63.50;;;;;;5053431;28;20058;-75
2022/04/12 05:49:29;;;;;;;14.32;5.38;;;7.20;63.80;;;;;;5051774;28;20032;-74
2022/04/12 05:51:55;;;;;;;13.18;4.78;;;7.30;63.30;;;;;;5053436;28;20035;-76
2022/04/12 05:54:22;;;;;;;10.18;4.93;;;7.40;62.50;;;;;;5053362;28;20041;-75
2022/04/12 05:56:48;;;;;;;8.70;5.05;;;7.50;62.10;;;;;;5053164;28;20108;-76
2022/04/12 05:59:13;;;;;;;7.88;4.20;;;7.80;63.50;;;;;;5053190;28;20040;-75
2022/04/12 06:01:39;;;;;;;19.42;5.05;;;8.10;60.80;;;;;;5052945;28;20029;-76
2022/04/12 06:04:05;;;;;;;12.27;4.85;;;8.30;62.40;;;;;;5052997;28;20051;-76
2022/04/12 06:06:32;;;;;;;9.45;4.90;;;8.50;59.10;;;;;;5053266;28;20492;-81
2022/04/12 06:08:58;;;;;;;10.45;5.00;;;8.60;57.40;;;;;;5053523;28;20052;-78
2022/04/12 06:11:24;;;;;;;13.38;4.65;;;8.70;57.10;;;;;;5053319;28;20101;-77
2022/04/12 06:13:49;;;;;;;7.80;4.68;;;8.70;57.30;;;;;;5053100;28;20482;-78
2022/04/12 06:16:15;;;;;;;9.65;4.10;;;8.60;57.60;;;;;;5052988;28;20036;-78
2022/04/12 06:18:41;;;;;;;7.55;3.95;;;8.70;57.60;;;;;;5053049;28;20033;-77
2022/04/12 06:21:06;;;;;;;8.52;4.10;;;8.70;57.30;;;;;;5053955;28;20420;-78
2022/04/12 06:23:32;;;;;;;9.63;3.28;;;8.80;56.90;;;;;;5054423;28;20031;-77
2022/04/12 06:25:58;;;;;;;7.25;3.85;;;8.90;56.80;;;;;;5054168;28;20199;-79
2022/04/12 06:28:24;;;;;;;7.65;3.35;;;9.00;56.40;;;;;;5058743;28;20024;-77
2022/04/12 06:30:49;;;;;;;8.85;3.45;;;9.10;56.00;;;;;;5054558;28;20032;-77
2022/04/12 06:33:15;;;;;;;5.22;3.42;;;9.30;55.80;;;;;;5053545;28;20644;-76
2022/04/12 06:35:40;;;;;;;10.88;4.25;;;9.40;56.20;;;;;;5052957;28;20029;-76
2022/04/12 06:38:08;;;;;;;7.78;3.33;;;9.50;56.10;;;;;;5053591;28;20544;-77
2022/04/12 06:40:35;;;;;;;6.43;3.55;;;9.70;55.40;;;;;;5052417;28;20116;-74
2022/04/12 06:43:00;;;;;;;7.55;3.50;;;9.90;55.00;;;;;;5052745;28;20021;-76
2022/04/12 06:45:26;;;;;;;5.35;3.25;;;10.00;54.80;;;;;;5052176;28;20032;-75
2022/04/12 06:47:58;;;;;;;11.73;3.80;;;10.20;54.40;;;;;;5052466;28;20043;-78
2022/04/12 06:50:25;;;;;;;5.45;3.60;;;10.50;54.20;;;;;;5051495;28;20032;-78
2022/04/12 06:52:52;;;;;;;10.40;4.13;;;10.70;53.20;;;;;;5051481;28;20017;-77
2022/04/12 06:55:17;;;;;;;9.23;3.80;;;10.90;52.10;;;;;;5051512;28;20475;-77
2022/04/12 06:57:43;;;;;;;10.93;5.70;;;11.00;51.30;;;;;;5051140;28;20115;-74
2022/04/12 07:00:10;;;;;;;8.32;3.20;;;11.20;50.90;;;;;;5051334;28;20047;-76
2022/04/12 07:02:36;;;;;;;7.18;3.42;;;11.30;48.90;;;;;;5051052;28;20032;-74
2022/04/12 07:05:05;;;;;;;4.78;2.65;;;11.40;47.70;;;;;;5050943;28;20502;-74
2022/04/12 07:07:31;;;;;;;5.35;2.78;;;11.60;47.00;;;;;;5050827;28;20021;-76
2022/04/12 07:09:56;;;;;;;7.63;2.92;;;11.80;46.60;;;;;;5050994;28;20032;-76
2022/04/12 07:12:23;;;;;;;11.02;3.67;;;12.00;46.70;;;;;;5050875;28;20071;-76
2022/04/12 07:14:49;;;;;;;10.38;3.03;;;12.10;46.60;;;;;;5036274;28;20380;-73
2022/04/12 07:17:14;;;;;;;7.95;3.70;;;12.20;46.60;;;;;;5055039;28;20032;-75
2022/04/12 07:19:40;;;;;;;9.35;3.78;;;12.40;46.70;;;;;;5055033;28;20371;-74
2022/04/12 07:22:05;;;;;;;5.85;3.10;;;12.50;46.10;;;;;;5055145;28;20027;-74
2022/04/12 07:24:31;;;;;;;6.00;2.67;;;12.60;45.70;;;;;;5054676;28;20055;-76
2022/04/12 07:26:57;;;;;;;6.47;2.78;;;12.80;44.50;;;;;;5055296;28;20050;-74
2022/04/12 07:29:22;;;;;;;12.60;3.28;;;12.90;43.40;;;;;;5054786;28;20018;-74
2022/04/12 07:31:48;;;;;;;9.20;3.42;;;13.00;44.80;;;;;;5055055;28;20029;-77
2022/04/12 07:34:13;;;;;;;6.22;2.78;;;13.10;43.80;;;;;;5055031;28;20467;-77
2022/04/12 07:36:43;;;;;;;4.93;3.10;;;13.30;42.10;;;;;;5055920;28;20033;-76
2022/04/12 07:39:09;;;;;;;6.43;2.83;;;13.30;43.30;;;;;;5053796;28;20041;-76
2022/04/12 07:41:35;;;;;;;7.95;2.67;;;13.50;43.50;;;;;;5054343;28;20174;-79
2022/04/12 07:44:01;;;;;;;3.78;1.98;;;13.70;43.10;;;;;;5056521;28;20486;-78
2022/04/12 07:46:27;;;;;;;7.13;2.88;;;13.90;43.10;;;;;;5055153;28;20021;-77
2022/04/12 07:48:53;;;;;;;12.82;3.65;;;14.10;43.00;;;;;;5055928;28;20135;-79
2022/04/12 07:51:18;;;;;;;5.53;2.53;;;14.20;42.70;;;;;;5062367;28;20080;-75
2022/04/12 07:53:44;;;;;;;5.97;3.25;;;14.40;42.70;;;;;;5059700;28;20028;-75
2022/04/12 07:56:10;;;;;;;8.38;3.38;;;14.40;42.70;;;;;;5062787;28;20113;-75
2022/04/12 07:58:35;;;;;;;11.85;6.13;;;14.50;42.40;;;;;;5066005;28;20033;-75
2022/04/12 08:01:01;;;;;;;9.82;4.00;;;14.70;42.00;;;;;;5069894;28;20021;-76
2022/04/12 08:03:27;;;;;;;5.05;2.90;;;14.80;40.80;;;;;;5067917;28;20078;-76
2022/04/12 08:05:55;;;;;;;9.27;2.45;;;15.00;39.70;;;;;;5072971;28;20052;-76
2022/04/12 08:08:21;;;;;;;4.60;1.70;;;15.20;36.60;;;;;;5070612;28;20040;-78
2022/04/12 08:10:46;;;;;;;4.50;1.55;;;15.30;31.40;;;;;;5072041;28;20025;-77
2022/04/12 08:13:12;;;;;;;4.00;1.58;;;15.40;29.70;;;;;;5060986;28;20036;-77
2022/04/12 08:15:38;;;;;;;6.32;1.52;;;15.60;30.00;;;;;;5056200;28;20033;-78
2022/04/12 08:18:05;;;;;;;2.67;1.40;;;15.80;28.40;;;;;;5055110;28;20079;-79
2022/04/12 08:20:31;;;;;;;3.50;1.10;;;16.00;27.50;;;;;;5053774;28;20029;-76
2022/04/12 08:22:56;;;;;;;1.98;0.90;;;16.10;26.70;;;;;;5054841;28;20025;-76
2022/04/12 08:25:22;;;;;;;5.50;2.58;;;16.20;25.20;;;;;;5054625;28;20513;-76
2022/04/12 08:27:48;;;;;;;5.60;2.53;;;16.20;24.60;;;;;;5053613;28;20021;-76
2022/04/12 08:30:14;;;;;;;5.63;1.80;;;16.30;25.10;;;;;;5053346;28;20029;-74
2022/04/12 08:32:40;;;;;;;3.05;1.45;;;16.40;25.70;;;;;;5052443;28;20389;-78
2022/04/12 08:35:07;;;;;;;1.77;1.20;;;16.60;25.30;;;;;;5052346;28;20108;-77
2022/04/12 08:37:32;;;;;;;7.28;1.60;;;16.80;24.70;;;;;;5053326;28;20025;-78
2022/04/12 08:39:58;;;;;;;4.45;1.60;;;16.90;24.30;;;;;;5052882;28;20235;-78
2022/04/12 08:42:24;;;;;;;1.25;1.10;;;16.90;24.10;;;;;;5053539;28;20467;-77
2022/04/12 08:44:50;;;;;;;2.33;1.30;;;17.00;23.80;;;;;;5052948;28;20131;-76
2022/04/12 08:47:18;;;;;;;4.18;2.17;;;17.10;23.40;;;;;;5052371;28;20068;-76
2022/04/12 08:49:44;;;;;;;9.75;3.03;;;17.10;23.00;;;;;;5052113;28;20571;-76
2022/04/12 08:52:12;;;;;;;7.03;3.45;;;17.20;22.20;;;;;;5052084;28;20390;-77
2022/04/12 08:54:42;;;;;;;6.70;2.50;;;17.20;22.20;;;;;;5051881;28;20174;-76
2022/04/12 08:57:09;;;;;;;6.10;2.35;;;17.40;22.70;;;;;;5050933;28;20485;-75
2022/04/12 08:59:35;;;;;;;4.78;1.73;;;17.50;22.00;;;;;;5054636;28;20036;-76
2022/04/12 09:02:01;;;;;;;1.25;1.10;;;17.50;22.00;;;;;;5053565;28;20036;-74
2022/04/12 09:04:27;;;;;;;3.63;1.00;;;17.60;22.00;;;;;;5052711;28;20045;-75
2022/04/12 09:07:00;;;;;;;2.90;1.20;;;17.70;21.00;;;;;;5053212;28;20060;-76
2022/04/12 09:09:30;;;;;;;2.97;1.00;;;17.80;21.20;;;;;;5052945;28;20029;-75
2022/04/12 09:12:10;;;;;;;1.50;1.08;;;18.00;20.50;;;;;;5052829;28;20025;-75
2022/04/12 09:14:41;;;;;;;4.43;1.20;;;18.00;20.20;;;;;;5052717;28;20025;-75
2022/04/12 09:17:13;;;;;;;3.05;1.38;;;18.20;20.40;;;;;;5052758;28;20067;-76
2022/04/12 09:19:53;;;;;;;4.85;1.92;;;18.40;20.70;;;;;;5052770;28;20554;-77
2022/04/12 09:22:24;;;;;;;3.28;1.10;;;18.50;19.60;;;;;;5052841;28;20039;-77
2022/04/12 09:24:52;;;;;;;4.15;1.10;;;18.70;19.80;;;;;;5054471;28;20029;-77
2022/04/12 09:27:23;;;;;;;3.88;1.40;;;18.70;19.20;;;;;;5052798;28;20025;-77
2022/04/12 09:29:51;;;;;;;4.40;1.40;;;18.70;18.80;;;;;;5052400;28;20028;-77
2022/04/12 09:32:21;;;;;;;3.35;1.20;;;18.80;19.80;;;;;;5052651;28;20086;-77
2022/04/12 09:34:47;;;;;;;2.55;1.08;;;19.00;20.50;;;;;;5052090;28;20032;-77
2022/04/12 09:37:25;;;;;;;2.53;0.80;;;19.10;20.00;;;;;;5051759;28;20060;-77
2022/04/12 09:39:59;;;;;;;1.88;0.90;;;19.20;20.00;;;;;;5052400;28;20083;-76
2022/04/12 09:42:45;;;;;;;3.58;0.70;;;19.10;19.10;;;;;;5052719;28;20107;-76
2022/04/12 09:45:15;;;;;;;3.30;1.33;;;19.20;19.10;;;;;;5052339;28;20083;-76
2022/04/12 09:47:42;;;;;;;4.68;1.90;;;19.40;19.60;;;;;;5052155;28;20017;-76
2022/04/12 09:50:10;;;;;;;1.63;0.98;;;19.40;18.80;;;;;;5052374;28;20078;-76
2022/04/12 09:52:37;;;;;;;3.53;1.50;;;19.60;19.40;;;;;;5052226;28;20024;-76
2022/04/12 09:55:03;;;;;;;3.60;1.05;;;19.90;19.70;;;;;;5051717;28;20060;-76
2022/04/12 09:57:29;;;;;;;2.55;0.80;;;20.00;19.90;;;;;;5051953;28;20040;-76
2022/04/12 09:59:56;;;;;;;2.65;1.10;;;20.10;19.80;;;;;;5052066;28;20103;-77
2022/04/12 10:02:24;;;;;;;1.67;0.80;;;20.40;20.00;;;;;;5052283;28;20040;-76
2022/04/12 10:04:55;;;;;;;3.50;0.93;;;20.70;19.40;;;;;;5051694;28;20376;-78
2022/04/12 10:07:23;;;;;;;1.48;0.63;;;20.90;18.20;;;;;;5051536;28;20021;-76
2022/04/12 10:09:50;;;;;;;1.75;0.68;;;21.10;18.70;;;;;;5051710;28;20502;-76
2022/04/12 10:12:17;;;;;;;4.40;0.80;;;21.30;18.60;;;;;;5051579;28;20051;-78
2022/04/12 10:14:43;;;;;;;1.60;0.65;;;21.50;18.00;;;;;;5052163;28;20032;-79
2022/04/12 10:17:10;;;;;;;1.23;0.68;;;21.50;17.30;;;;;;5051808;28;20118;-78
2022/04/12 10:19:36;;;;;;;1.42;0.90;;;21.50;17.10;;;;;;5051154;28;20047;-78
2022/04/12 10:22:06;;;;;;;2.15;0.93;;;21.50;17.10;;;;;;5052602;28;20029;-78
2022/04/12 10:24:33;;;;;;;3.05;1.00;;;21.50;16.60;;;;;;5051172;28;20035;-79
2022/04/12 10:26:59;;;;;;;1.17;0.80;;;21.50;17.40;;;;;;5052502;28;20037;-79
2022/04/12 10:29:25;;;;;;;1.45;0.80;;;21.60;17.30;;;;;;5051493;28;20104;-79
2022/04/12 10:31:59;;;;;;;1.17;0.93;;;21.80;17.40;;;;;;5051563;28;20071;-79
2022/04/12 10:34:25;;;;;;;1.58;0.88;;;21.90;17.20;;;;;;5051293;28;20109;-77
2022/04/12 10:37:02;;;;;;;4.43;0.70;;;22.10;17.50;;;;;;5051834;28;20398;-77
2022/04/12 10:39:45;;;;;;;1.38;0.90;;;22.20;17.00;;;;;;5051588;28;20054;-78
2022/04/12 10:42:16;;;;;;;0.93;0.50;;;22.30;16.40;;;;;;5051575;28;20056;-78
2022/04/12 10:44:44;;;;;;;2.00;0.80;;;22.30;16.30;;;;;;5054168;28;20431;-77
2022/04/12 10:47:24;;;;;;;1.98;0.70;;;22.40;16.80;;;;;;5035718;28;20033;-77
2022/04/12 10:49:58;;;;;;;2.08;0.90;;;22.40;17.20;;;;;;5053170;28;20157;-75
2022/04/12 10:52:43;;;;;;;2.35;1.10;;;22.30;17.40;;;;;;5054357;28;20060;-76
2022/04/12 10:55:17;;;;;;;3.88;1.00;;;22.30;17.20;;;;;;5054920;28;20120;-77
2022/04/12 10:57:44;;;;;;;2.92;0.80;;;22.10;16.60;;;;;;5055104;28;20025;-78
2022/04/12 11:00:10;;;;;;;2.08;1.27;;;22.00;17.40;;;;;;5055048;28;20064;-79
2022/04/12 11:02:41;;;;;;;1.35;0.73;;;22.10;17.20;;;;;;5055024;28;20053;-78
2022/04/12 11:05:28;;;;;;;2.58;0.85;;;22.20;16.70;;;;;;5055182;28;20052;-78
2022/04/12 11:07:54;;;;;;;3.08;0.85;;;22.30;17.00;;;;;;5055048;28;20021;-78
2022/04/12 11:10:23;;;;;;;5.30;1.05;;;22.40;17.30;;;;;;5055212;28;20021;-78
2022/04/12 11:13:03;;;;;;;2.05;0.90;;;22.40;17.30;;;;;;5055108;28;20128;-77
2022/04/12 11:15:30;;;;;;;1.80;0.70;;;22.30;17.00;;;;;;5055065;28;20025;-80
2022/04/12 11:18:11;;;;;;;2.25;0.50;;;22.30;17.40;;;;;;5054648;28;20116;-79
2022/04/12 11:20:39;;;;;;;1.27;0.60;;;22.20;17.10;;;;;;5055193;28;20383;-79
2022/04/12 11:23:10;;;;;;;2.60;0.90;;;22.30;17.60;;;;;;5054992;28;20025;-79
2022/04/12 11:25:48;;;;;;;3.88;1.00;;;22.30;17.50;;;;;;5054281;28;20028;-78
2022/04/12 11:28:15;;;;;;;1.75;0.95;;;22.40;18.60;;;;;;5054556;28;20032;-76
2022/04/12 11:30:51;;;;;;;1.67;0.73;;;22.60;17.80;;;;;;5038317;28;20036;-78
2022/04/12 11:33:16;;;;;;;1.63;0.90;;;22.70;18.20;;;;;;5054604;28;20091;-78
2022/04/12 11:35:43;;;;;;;1.48;0.70;;;23.00;18.50;;;;;;5054241;28;20339;-76
2022/04/12 11:38:08;;;;;;;0.95;0.70;;;23.00;17.40;;;;;;5053903;28;20549;-77
2022/04/12 11:40:34;;;;;;;1.20;0.70;;;23.20;17.60;;;;;;5054294;28;20112;-77
2022/04/12 11:43:00;;;;;;;1.08;0.68;;;23.30;17.70;;;;;;5037379;28;20382;-79
2022/04/12 11:45:33;;;;;;;2.65;1.10;;;23.40;17.80;;;;;;5054519;28;20044;-80
2022/04/12 11:47:59;;;;;;;1.75;0.88;;;23.50;17.70;;;;;;5054068;28;20060;-76
2022/04/12 11:50:26;;;;;;;2.72;0.82;;;23.60;17.20;;;;;;5054115;28;20049;-77
2022/04/12 11:52:51;;;;;;;3.08;0.90;;;23.60;17.20;;;;;;5053773;28;20135;-77
2022/04/12 11:55:17;;;;;;;1.25;0.45;;;23.70;17.20;;;;;;5053590;28;20021;-76
2022/04/12 11:57:43;;;;;;;1.35;0.90;;;23.80;17.20;;;;;;5054114;28;20031;-77
2022/04/12 12:00:09;;;;;;;4.47;1.00;;;23.90;16.90;;;;;;5053749;28;20119;-77
2022/04/12 12:02:39;;;;;;;1.42;0.80;;;23.90;17.00;;;;;;5054292;28;20386;-77
2022/04/12 12:05:10;;;;;;;3.63;0.82;;;24.20;17.30;;;;;;5054172;28;20049;-76
2022/04/12 12:07:37;;;;;;;2.05;0.90;;;24.20;17.20;;;;;;5054162;28;20093;-77
2022/04/12 12:10:11;;;;;;;3.97;0.85;;;24.30;16.50;;;;;;5053931;28;20036;-77
2022/04/12 12:12:45;;;;;;;3.40;0.80;;;24.30;17.00;;;;;;5053814;28;20135;-77
2022/04/12 12:15:22;;;;;;;3.83;0.70;;;24.50;16.40;;;;;;5054165;28;20267;-76
2022/04/12 12:17:50;;;;;;;3.83;0.77;;;24.30;15.90;;;;;;5038942;28;20025;-77
2022/04/12 12:20:17;;;;;;;4.22;1.00;;;24.30;15.70;;;;;;5053956;28;20024;-76
2022/04/12 12:22:44;;;;;;;1.35;0.70;;;24.40;16.30;;;;;;5054074;28;20075;-76
2022/04/12 12:25:18;;;;;;;5.88;0.70;;;24.40;15.90;;;;;;5053848;28;20024;-75
2022/04/12 12:27:51;;;;;;;1.95;0.70;;;24.10;15.40;;;;;;5053850;28;20017;-75
2022/04/12 12:30:19;;;;;;;5.05;2.03;;;23.70;16.50;;;;;;5053739;28;20055;-76
2022/04/12 12:32:45;;;;;;;5.88;3.17;;;23.90;17.60;;;;;;5053481;28;20112;-78
2022/04/12 12:35:15;;;;;;;1.73;0.80;;;24.10;17.20;;;;;;5053289;28;20120;-77
2022/04/12 12:37:42;;;;;;;1.10;0.60;;;24.20;16.40;;;;;;5053719;28;20074;-76
2022/04/12 12:40:21;;;;;;;2.00;0.75;;;24.20;16.20;;;;;;5053660;28;20064;-76
2022/04/12 12:42:48;;;;;;;1.50;0.70;;;24.30;16.40;;;;;;5053549;28;20025;-75
2022/04/12 12:45:20;;;;;;;2.65;0.65;;;24.40;16.20;;;;;;5053356;28;20486;-75
2022/04/12 12:47:50;;;;;;;1.10;0.50;;;24.40;16.70;;;;;;5053069;28;20025;-77
2022/04/12 12:50:17;;;;;;;1.52;0.73;;;24.40;15.70;;;;;;5053394;28;20036;-77
2022/04/12 12:52:44;;;;;;;3.22;0.90;;;24.10;15.80;;;;;;5053057;28;20121;-76